sensor_id;sensor_type;location;lat;lon;timestamp;temperature;humidity
10644;DHT22;5370;50.132;8.626;2023-06-01T00:01:27;16.50;54.80
10644;DHT22;5370;50.132;8.626;2023-06-01T00:04:01;16.50;55.10
10644;DHT22;5370;50.132;8.626;2023-06-01T00:06:26;16.40;55.10
10644;DHT22;5370;50.132;8.626;2023-06-01T00:08:56;16.40;55.20
10644;DHT22;5370;50.132;8.626;2023-06-01T00:11:22;16.30;55.30
10644;DHT22;5370;50.132;8.626;2023-06-01T00:13:48;16.30;55.50
10644;DHT22;5370;50.132;8.626;2023-06-01T00:16:14;16.20;55.60
10644;DHT22;5370;50.132;8.626;2023-06-01T00:18:40;16.30;55.90
10644;DHT22;5370;50.132;8.626;2023-06-01T00:21:06;16.10;55.90
10644;DHT22;5370;50.132;8.626;2023-06-01T00:23:31;16.10;56.10
10644;DHT22;5370;50.132;8.626;2023-06-01T00:25:58;16.10;56.40
10644;DHT22;5370;50.132;8.626;2023-06-01T00:28:23;16.00;56.50
10644;DHT22;5370;50.132;8.626;2023-06-01T00:30:50;15.90;56.70
10644;DHT22;5370;50.132;8.626;2023-06-01T00:33:17;15.90;56.90
10644;DHT22;5370;50.132;8.626;2023-06-01T00:35:42;15.90;57.20
10644;DHT22;5370;50.132;8.626;2023-06-01T00:38:08;15.80;57.30
10644;DHT22;5370;50.132;8.626;2023-06-01T00:40:34;15.80;57.40
10644;DHT22;5370;50.132;8.626;2023-06-01T00:42:59;15.80;57.70
10644;DHT22;5370;50.132;8.626;2023-06-01T00:45:25;15.70;57.80
10644;DHT22;5370;50.132;8.626;2023-06-01T00:47:51;15.70;58.10
10644;DHT22;5370;50.132;8.626;2023-06-01T00:50:17;15.70;58.30
10644;DHT22;5370;50.132;8.626;2023-06-01T00:52:43;15.70;58.30
10644;DHT22;5370;50.132;8.626;2023-06-01T00:55:10;15.60;58.30
10644;DHT22;5370;50.132;8.626;2023-06-01T00:57:38;15.60;58.50
10644;DHT22;5370;50.132;8.626;2023-06-01T01:00:04;15.60;58.60
10644;DHT22;5370;50.132;8.626;2023-06-01T01:02:41;15.50;58.60
10644;DHT22;5370;50.132;8.626;2023-06-01T01:05:08;15.50;58.80
10644;DHT22;5370;50.132;8.626;2023-06-01T01:10:27;15.40;59.30
10644;DHT22;5370;50.132;8.626;2023-06-01T01:13:10;15.40;59.70
10644;DHT22;5370;50.132;8.626;2023-06-01T01:15:40;15.30;60.10
10644;DHT22;5370;50.132;8.626;2023-06-01T01:18:12;15.30;60.30
10644;DHT22;5370;50.132;8.626;2023-06-01T01:20:44;15.20;60.60
10644;DHT22;5370;50.132;8.626;2023-06-01T01:23:38;15.20;60.90
10644;DHT22;5370;50.132;8.626;2023-06-01T01:26:36;15.20;61.50
10644;DHT22;5370;50.132;8.626;2023-06-01T01:29:09;15.10;61.50
10644;DHT22;5370;50.132;8.626;2023-06-01T01:31:38;15.10;61.70
10644;DHT22;5370;50.132;8.626;2023-06-01T01:34:04;15.10;61.80
10644;DHT22;5370;50.132;8.626;2023-06-01T01:36:31;15.10;61.80
10644;DHT22;5370;50.132;8.626;2023-06-01T01:38:57;15.10;61.90
10644;DHT22;5370;50.132;8.626;2023-06-01T01:41:22;15.10;62.00
10644;DHT22;5370;50.132;8.626;2023-06-01T01:43:49;15.10;62.20
10644;DHT22;5370;50.132;8.626;2023-06-01T01:46:25;15.10;62.30
10644;DHT22;5370;50.132;8.626;2023-06-01T01:48:58;15.10;62.40
10644;DHT22;5370;50.132;8.626;2023-06-01T01:52:41;15.10;62.50
10644;DHT22;5370;50.132;8.626;2023-06-01T01:54:42;15.00;62.60
10644;DHT22;5370;50.132;8.626;2023-06-01T01:57:08;15.00;62.80
10644;DHT22;5370;50.132;8.626;2023-06-01T01:59:35;15.00;62.90
10644;DHT22;5370;50.132;8.626;2023-06-01T02:02:01;15.00;63.00
10644;DHT22;5370;50.132;8.626;2023-06-01T02:04:28;15.00;63.30
10644;DHT22;5370;50.132;8.626;2023-06-01T02:06:53;14.90;63.40
10644;DHT22;5370;50.132;8.626;2023-06-01T02:09:19;14.90;63.40
10644;DHT22;5370;50.132;8.626;2023-06-01T02:11:45;14.90;63.60
10644;DHT22;5370;50.132;8.626;2023-06-01T02:14:10;14.90;63.60
10644;DHT22;5370;50.132;8.626;2023-06-01T02:16:36;14.90;63.70
10644;DHT22;5370;50.132;8.626;2023-06-01T02:19:02;14.90;63.90
10644;DHT22;5370;50.132;8.626;2023-06-01T02:21:28;14.90;63.90
10644;DHT22;5370;50.132;8.626;2023-06-01T02:23:53;14.90;64.20
10644;DHT22;5370;50.132;8.626;2023-06-01T02:26:19;14.80;64.10
10644;DHT22;5370;50.132;8.626;2023-06-01T02:28:45;14.80;64.30
10644;DHT22;5370;50.132;8.626;2023-06-01T02:31:11;14.80;64.40
10644;DHT22;5370;50.132;8.626;2023-06-01T02:33:38;14.80;64.50
10644;DHT22;5370;50.132;8.626;2023-06-01T02:36:03;14.80;64.60
10644;DHT22;5370;50.132;8.626;2023-06-01T02:38:29;14.80;64.60
10644;DHT22;5370;50.132;8.626;2023-06-01T02:40:54;14.90;64.80
10644;DHT22;5370;50.132;8.626;2023-06-01T02:43:20;14.80;65.00
10644;DHT22;5370;50.132;8.626;2023-06-01T02:45:45;14.90;65.10
10644;DHT22;5370;50.132;8.626;2023-06-01T02:48:11;14.80;65.00
10644;DHT22;5370;50.132;8.626;2023-06-01T02:50:36;14.80;65.10
10644;DHT22;5370;50.132;8.626;2023-06-01T02:53:02;14.80;65.20
10644;DHT22;5370;50.132;8.626;2023-06-01T02:55:27;14.80;65.30
10644;DHT22;5370;50.132;8.626;2023-06-01T02:57:53;14.70;65.30
10644;DHT22;5370;50.132;8.626;2023-06-01T03:00:19;14.70;65.50
10644;DHT22;5370;50.132;8.626;2023-06-01T03:02:45;14.70;65.50
10644;DHT22;5370;50.132;8.626;2023-06-01T03:05:11;14.70;65.70
10644;DHT22;5370;50.132;8.626;2023-06-01T03:07:43;14.70;66.10
10644;DHT22;5370;50.132;8.626;2023-06-01T03:10:10;14.60;66.30
10644;DHT22;5370;50.132;8.626;2023-06-01T03:12:36;14.60;66.70
10644;DHT22;5370;50.132;8.626;2023-06-01T03:15:02;14.50;66.70
10644;DHT22;5370;50.132;8.626;2023-06-01T03:17:27;14.50;67.00
10644;DHT22;5370;50.132;8.626;2023-06-01T03:19:53;14.50;67.10
10644;DHT22;5370;50.132;8.626;2023-06-01T03:22:19;14.40;67.10
10644;DHT22;5370;50.132;8.626;2023-06-01T03:24:44;14.40;67.10
10644;DHT22;5370;50.132;8.626;2023-06-01T03:27:15;14.40;67.20
10644;DHT22;5370;50.132;8.626;2023-06-01T03:29:40;14.40;67.20
10644;DHT22;5370;50.132;8.626;2023-06-01T03:32:07;14.40;67.20
10644;DHT22;5370;50.132;8.626;2023-06-01T03:34:32;14.40;67.30
10644;DHT22;5370;50.132;8.626;2023-06-01T03:37:02;14.30;67.30
10644;DHT22;5370;50.132;8.626;2023-06-01T03:39:29;14.30;67.50
10644;DHT22;5370;50.132;8.626;2023-06-01T03:41:57;14.30;67.70
10644;DHT22;5370;50.132;8.626;2023-06-01T03:44:22;14.30;67.70
10644;DHT22;5370;50.132;8.626;2023-06-01T03:46:48;14.30;67.80
10644;DHT22;5370;50.132;8.626;2023-06-01T03:49:13;14.30;67.90
10644;DHT22;5370;50.132;8.626;2023-06-01T03:51:39;14.30;68.00
10644;DHT22;5370;50.132;8.626;2023-06-01T03:54:05;14.30;68.10
10644;DHT22;5370;50.132;8.626;2023-06-01T03:56:30;14.30;68.10
10644;DHT22;5370;50.132;8.626;2023-06-01T03:58:57;14.30;68.10
10644;DHT22;5370;50.132;8.626;2023-06-01T04:01:23;14.30;68.10
10644;DHT22;5370;50.132;8.626;2023-06-01T04:03:49;14.40;68.10
10644;DHT22;5370;50.132;8.626;2023-06-01T04:06:15;14.40;68.20
10644;DHT22;5370;50.132;8.626;2023-06-01T04:08:46;14.40;68.10
10644;DHT22;5370;50.132;8.626;2023-06-01T04:11:17;14.50;68.10
10644;DHT22;5370;50.132;8.626;2023-06-01T04:13:43;14.50;68.00
10644;DHT22;5370;50.132;8.626;2023-06-01T04:16:10;14.50;67.80
10644;DHT22;5370;50.132;8.626;2023-06-01T04:18:36;14.60;67.70
10644;DHT22;5370;50.132;8.626;2023-06-01T04:21:02;14.70;67.60
10644;DHT22;5370;50.132;8.626;2023-06-01T04:23:27;14.70;67.40
10644;DHT22;5370;50.132;8.626;2023-06-01T04:25:53;14.80;67.30
10644;DHT22;5370;50.132;8.626;2023-06-01T04:28:24;14.80;67.10
10644;DHT22;5370;50.132;8.626;2023-06-01T04:30:50;14.90;66.90
10644;DHT22;5370;50.132;8.626;2023-06-01T04:33:17;15.00;66.80
10644;DHT22;5370;50.132;8.626;2023-06-01T04:35:42;15.00;66.70
10644;DHT22;5370;50.132;8.626;2023-06-01T04:38:08;15.10;66.50
10644;DHT22;5370;50.132;8.626;2023-06-01T04:40:34;15.20;66.50
10644;DHT22;5370;50.132;8.626;2023-06-01T04:42:59;15.20;66.30
10644;DHT22;5370;50.132;8.626;2023-06-01T04:45:28;15.30;66.20
10644;DHT22;5370;50.132;8.626;2023-06-01T04:47:56;15.40;66.20
10644;DHT22;5370;50.132;8.626;2023-06-01T04:50:25;15.50;66.70
10644;DHT22;5370;50.132;8.626;2023-06-01T04:52:54;15.50;65.90
10644;DHT22;5370;50.132;8.626;2023-06-01T04:55:20;15.60;65.80
10644;DHT22;5370;50.132;8.626;2023-06-01T04:57:46;15.70;65.60
10644;DHT22;5370;50.132;8.626;2023-06-01T05:00:14;15.80;65.50
10644;DHT22;5370;50.132;8.626;2023-06-01T05:02:43;15.90;65.40
10644;DHT22;5370;50.132;8.626;2023-06-01T05:05:10;16.00;65.30
10644;DHT22;5370;50.132;8.626;2023-06-01T05:07:39;16.10;64.80
10644;DHT22;5370;50.132;8.626;2023-06-01T05:10:06;16.20;64.60
10644;DHT22;5370;50.132;8.626;2023-06-01T05:12:33;16.30;64.20
10644;DHT22;5370;50.132;8.626;2023-06-01T05:14:59;16.40;63.90
10644;DHT22;5370;50.132;8.626;2023-06-01T05:17:25;16.50;63.80
10644;DHT22;5370;50.132;8.626;2023-06-01T05:19:50;16.60;63.30
10644;DHT22;5370;50.132;8.626;2023-06-01T05:22:16;16.70;63.00
10644;DHT22;5370;50.132;8.626;2023-06-01T05:24:42;16.90;62.80
10644;DHT22;5370;50.132;8.626;2023-06-01T05:27:08;17.00;62.10
10644;DHT22;5370;50.132;8.626;2023-06-01T05:29:33;17.10;61.80
10644;DHT22;5370;50.132;8.626;2023-06-01T05:31:59;17.40;61.40
10644;DHT22;5370;50.132;8.626;2023-06-01T05:34:25;17.90;61.00
10644;DHT22;5370;50.132;8.626;2023-06-01T05:36:50;18.90;60.50
10644;DHT22;5370;50.132;8.626;2023-06-01T05:39:16;20.20;59.40
10644;DHT22;5370;50.132;8.626;2023-06-01T05:41:42;21.60;55.60
10644;DHT22;5370;50.132;8.626;2023-06-01T05:44:07;23.00;52.20
10644;DHT22;5370;50.132;8.626;2023-06-01T05:46:33;24.20;49.40
10644;DHT22;5370;50.132;8.626;2023-06-01T05:48:59;24.90;46.10
10644;DHT22;5370;50.132;8.626;2023-06-01T05:51:25;25.10;45.10
10644;DHT22;5370;50.132;8.626;2023-06-01T05:53:51;25.20;44.50
10644;DHT22;5370;50.132;8.626;2023-06-01T05:56:16;25.30;44.30
10644;DHT22;5370;50.132;8.626;2023-06-01T05:58:43;25.70;44.40
10644;DHT22;5370;50.132;8.626;2023-06-01T06:01:08;26.30;42.50
10644;DHT22;5370;50.132;8.626;2023-06-01T06:03:36;26.80;41.30
10644;DHT22;5370;50.132;8.626;2023-06-01T06:06:02;27.40;40.50
10644;DHT22;5370;50.132;8.626;2023-06-01T06:08:28;27.90;39.60
10644;DHT22;5370;50.132;8.626;2023-06-01T06:10:54;28.20;38.30
10644;DHT22;5370;50.132;8.626;2023-06-01T06:13:19;28.30;37.40
10644;DHT22;5370;50.132;8.626;2023-06-01T06:15:45;28.30;37.60
10644;DHT22;5370;50.132;8.626;2023-06-01T06:18:11;28.60;37.20
10644;DHT22;5370;50.132;8.626;2023-06-01T06:20:36;29.40;36.90
10644;DHT22;5370;50.132;8.626;2023-06-01T06:23:02;30.40;35.70
10644;DHT22;5370;50.132;8.626;2023-06-01T06:25:27;31.40;33.30
10644;DHT22;5370;50.132;8.626;2023-06-01T06:27:53;32.00;32.10
10644;DHT22;5370;50.132;8.626;2023-06-01T06:30:19;32.60;30.90
10644;DHT22;5370;50.132;8.626;2023-06-01T06:32:44;32.90;29.70
10644;DHT22;5370;50.132;8.626;2023-06-01T06:35:10;33.10;29.40
10644;DHT22;5370;50.132;8.626;2023-06-01T06:37:41;33.50;29.10
10644;DHT22;5370;50.132;8.626;2023-06-01T06:40:08;34.20;28.90
10644;DHT22;5370;50.132;8.626;2023-06-01T06:42:33;35.10;27.80
10644;DHT22;5370;50.132;8.626;2023-06-01T06:44:59;35.60;27.30
10644;DHT22;5370;50.132;8.626;2023-06-01T06:47:24;36.10;26.80
10644;DHT22;5370;50.132;8.626;2023-06-01T06:49:50;36.70;26.10
10644;DHT22;5370;50.132;8.626;2023-06-01T06:52:16;36.90;25.40
10644;DHT22;5370;50.132;8.626;2023-06-01T06:54:42;37.00;25.40
10644;DHT22;5370;50.132;8.626;2023-06-01T06:57:08;37.30;25.20
10644;DHT22;5370;50.132;8.626;2023-06-01T06:59:34;37.60;24.60
10644;DHT22;5370;50.132;8.626;2023-06-01T07:02:00;37.80;24.30
10644;DHT22;5370;50.132;8.626;2023-06-01T07:04:27;38.00;24.50
10644;DHT22;5370;50.132;8.626;2023-06-01T07:06:53;38.10;23.80
10644;DHT22;5370;50.132;8.626;2023-06-01T07:09:18;38.20;23.80
10644;DHT22;5370;50.132;8.626;2023-06-01T07:11:44;38.40;23.90
10644;DHT22;5370;50.132;8.626;2023-06-01T07:14:10;38.70;23.40
10644;DHT22;5370;50.132;8.626;2023-06-01T07:16:36;38.50;23.30
10644;DHT22;5370;50.132;8.626;2023-06-01T07:19:01;38.30;23.60
10644;DHT22;5370;50.132;8.626;2023-06-01T07:21:28;38.20;23.50
10644;DHT22;5370;50.132;8.626;2023-06-01T07:23:54;38.00;23.50
10644;DHT22;5370;50.132;8.626;2023-06-01T07:26:19;38.30;23.60
10644;DHT22;5370;50.132;8.626;2023-06-01T07:28:45;38.90;23.40
10644;DHT22;5370;50.132;8.626;2023-06-01T07:31:11;39.10;22.90
10644;DHT22;5370;50.132;8.626;2023-06-01T07:33:37;39.10;22.70
10644;DHT22;5370;50.132;8.626;2023-06-01T07:36:03;39.20;22.70
10644;DHT22;5370;50.132;8.626;2023-06-01T07:38:29;39.60;22.60
10644;DHT22;5370;50.132;8.626;2023-06-01T07:40:55;39.80;22.30
10644;DHT22;5370;50.132;8.626;2023-06-01T07:43:21;40.00;22.30
10644;DHT22;5370;50.132;8.626;2023-06-01T07:45:46;40.30;22.40
10644;DHT22;5370;50.132;8.626;2023-06-01T07:48:12;40.80;22.10
10644;DHT22;5370;50.132;8.626;2023-06-01T07:50:37;41.20;21.90
10644;DHT22;5370;50.132;8.626;2023-06-01T07:53:03;41.40;21.10
10644;DHT22;5370;50.132;8.626;2023-06-01T07:55:29;41.20;21.30
10644;DHT22;5370;50.132;8.626;2023-06-01T07:57:54;41.00;21.40
10644;DHT22;5370;50.132;8.626;2023-06-01T08:00:20;40.80;21.60
10644;DHT22;5370;50.132;8.626;2023-06-01T08:02:47;40.80;21.80
10644;DHT22;5370;50.132;8.626;2023-06-01T08:05:13;41.30;21.60
10644;DHT22;5370;50.132;8.626;2023-06-01T08:07:40;41.60;21.30
10644;DHT22;5370;50.132;8.626;2023-06-01T08:10:05;41.80;21.10
10644;DHT22;5370;50.132;8.626;2023-06-01T08:12:31;41.90;20.80
10644;DHT22;5370;50.132;8.626;2023-06-01T08:14:58;41.50;20.90
10644;DHT22;5370;50.132;8.626;2023-06-01T08:17:24;41.40;20.90
10644;DHT22;5370;50.132;8.626;2023-06-01T08:19:49;41.20;20.90
10644;DHT22;5370;50.132;8.626;2023-06-01T08:22:16;41.00;21.10
10644;DHT22;5370;50.132;8.626;2023-06-01T08:24:42;41.00;21.10
10644;DHT22;5370;50.132;8.626;2023-06-01T08:27:21;41.10;21.00
10644;DHT22;5370;50.132;8.626;2023-06-01T08:29:47;41.40;21.00
10644;DHT22;5370;50.132;8.626;2023-06-01T08:32:14;41.50;20.80
10644;DHT22;5370;50.132;8.626;2023-06-01T08:34:40;41.40;20.60
10644;DHT22;5370;50.132;8.626;2023-06-01T08:37:06;41.30;20.70
10644;DHT22;5370;50.132;8.626;2023-06-01T08:39:32;40.90;20.70
10644;DHT22;5370;50.132;8.626;2023-06-01T08:44:39;39.20;20.70
10644;DHT22;5370;50.132;8.626;2023-06-01T08:47:06;37.80;21.60
10644;DHT22;5370;50.132;8.626;2023-06-01T08:49:33;36.40;22.80
10644;DHT22;5370;50.132;8.626;2023-06-01T08:52:04;35.00;24.20
10644;DHT22;5370;50.132;8.626;2023-06-01T08:54:32;33.80;25.50
10644;DHT22;5370;50.132;8.626;2023-06-01T08:57:05;32.70;26.60
10644;DHT22;5370;50.132;8.626;2023-06-01T08:59:34;31.60;27.20
10644;DHT22;5370;50.132;8.626;2023-06-01T09:01:59;30.50;27.90
10644;DHT22;5370;50.132;8.626;2023-06-01T09:04:29;29.70;28.90
10644;DHT22;5370;50.132;8.626;2023-06-01T09:06:59;29.10;30.10
10644;DHT22;5370;50.132;8.626;2023-06-01T09:09:25;28.40;30.60
10644;DHT22;5370;50.132;8.626;2023-06-01T09:14:44;27.40;31.30
10644;DHT22;5370;50.132;8.626;2023-06-01T09:17:28;26.80;31.40
10644;DHT22;5370;50.132;8.626;2023-06-01T09:19:54;26.60;32.80
10644;DHT22;5370;50.132;8.626;2023-06-01T09:22:22;26.30;34.30
10644;DHT22;5370;50.132;8.626;2023-06-01T09:24:58;26.20;35.10
10644;DHT22;5370;50.132;8.626;2023-06-01T09:27:25;26.20;35.20
10644;DHT22;5370;50.132;8.626;2023-06-01T09:29:55;26.10;34.00
10644;DHT22;5370;50.132;8.626;2023-06-01T09:32:21;25.90;34.30
10644;DHT22;5370;50.132;8.626;2023-06-01T09:34:49;25.90;34.90
10644;DHT22;5370;50.132;8.626;2023-06-01T09:37:15;25.80;36.20
10644;DHT22;5370;50.132;8.626;2023-06-01T09:39:42;25.80;36.80
10644;DHT22;5370;50.132;8.626;2023-06-01T09:42:08;25.80;38.10
10644;DHT22;5370;50.132;8.626;2023-06-01T09:44:36;25.80;37.00
10644;DHT22;5370;50.132;8.626;2023-06-01T09:47:06;25.70;36.70
10644;DHT22;5370;50.132;8.626;2023-06-01T09:49:36;25.60;36.70
10644;DHT22;5370;50.132;8.626;2023-06-01T09:54:37;25.50;35.70
10644;DHT22;5370;50.132;8.626;2023-06-01T09:57:04;25.50;36.10
10644;DHT22;5370;50.132;8.626;2023-06-01T10:02:04;25.60;37.10
10644;DHT22;5370;50.132;8.626;2023-06-01T10:04:30;25.70;37.20
10644;DHT22;5370;50.132;8.626;2023-06-01T10:06:57;25.80;36.60
10644;DHT22;5370;50.132;8.626;2023-06-01T10:09:24;25.80;36.40
10644;DHT22;5370;50.132;8.626;2023-06-01T10:11:53;25.80;35.90
10644;DHT22;5370;50.132;8.626;2023-06-01T10:14:23;25.70;36.10
10644;DHT22;5370;50.132;8.626;2023-06-01T10:16:51;25.70;35.60
10644;DHT22;5370;50.132;8.626;2023-06-01T10:19:18;25.70;35.60
10644;DHT22;5370;50.132;8.626;2023-06-01T10:21:44;25.80;35.60
10644;DHT22;5370;50.132;8.626;2023-06-01T10:24:11;25.80;35.20
10644;DHT22;5370;50.132;8.626;2023-06-01T10:26:47;25.90;35.20
10644;DHT22;5370;50.132;8.626;2023-06-01T10:29:17;25.90;34.70
10644;DHT22;5370;50.132;8.626;2023-06-01T10:31:43;26.00;34.30
10644;DHT22;5370;50.132;8.626;2023-06-01T10:34:10;26.00;34.20
10644;DHT22;5370;50.132;8.626;2023-06-01T10:39:31;26.00;34.80
10644;DHT22;5370;50.132;8.626;2023-06-01T10:41:58;26.00;34.90
10644;DHT22;5370;50.132;8.626;2023-06-01T10:47:05;26.10;34.70
10644;DHT22;5370;50.132;8.626;2023-06-01T10:52:32;26.30;34.70
10644;DHT22;5370;50.132;8.626;2023-06-01T10:57:39;26.30;34.50
10644;DHT22;5370;50.132;8.626;2023-06-01T11:02:55;26.40;34.70
10644;DHT22;5370;50.132;8.626;2023-06-01T11:10:58;26.40;34.40
10644;DHT22;5370;50.132;8.626;2023-06-01T11:13:37;26.40;34.60
10644;DHT22;5370;50.132;8.626;2023-06-01T11:21:17;26.40;34.80
10644;DHT22;5370;50.132;8.626;2023-06-01T11:23:44;26.50;34.60
10644;DHT22;5370;50.132;8.626;2023-06-01T11:26:14;26.60;34.50
10644;DHT22;5370;50.132;8.626;2023-06-01T11:28:41;26.60;34.40
10644;DHT22;5370;50.132;8.626;2023-06-01T11:31:10;26.70;34.00
10644;DHT22;5370;50.132;8.626;2023-06-01T11:33:38;26.70;33.80
10644;DHT22;5370;50.132;8.626;2023-06-01T11:36:04;26.70;33.80
10644;DHT22;5370;50.132;8.626;2023-06-01T11:38:34;26.70;34.10
10644;DHT22;5370;50.132;8.626;2023-06-01T11:41:01;26.80;34.30
10644;DHT22;5370;50.132;8.626;2023-06-01T11:43:30;26.90;34.30
10644;DHT22;5370;50.132;8.626;2023-06-01T11:46:07;26.80;34.20
10644;DHT22;5370;50.132;8.626;2023-06-01T11:48:33;26.90;34.40
10644;DHT22;5370;50.132;8.626;2023-06-01T11:51:00;26.80;33.70
10644;DHT22;5370;50.132;8.626;2023-06-01T11:53:26;26.90;33.80
10644;DHT22;5370;50.132;8.626;2023-06-01T11:55:54;26.90;33.80
10644;DHT22;5370;50.132;8.626;2023-06-01T11:58:27;26.80;33.80
10644;DHT22;5370;50.132;8.626;2023-06-01T12:00:54;26.80;34.00
10644;DHT22;5370;50.132;8.626;2023-06-01T12:03:20;26.90;33.80
10644;DHT22;5370;50.132;8.626;2023-06-01T12:05:46;27.00;33.80
10644;DHT22;5370;50.132;8.626;2023-06-01T12:08:20;27.10;33.70
10644;DHT22;5370;50.132;8.626;2023-06-01T12:10:47;27.20;33.70
10644;DHT22;5370;50.132;8.626;2023-06-01T12:13:14;27.30;33.70
10644;DHT22;5370;50.132;8.626;2023-06-01T12:15:40;27.40;33.30
10644;DHT22;5370;50.132;8.626;2023-06-01T12:18:06;27.60;33.30
10644;DHT22;5370;50.132;8.626;2023-06-01T12:20:35;27.70;32.90
10644;DHT22;5370;50.132;8.626;2023-06-01T12:23:11;27.60;32.70
10644;DHT22;5370;50.132;8.626;2023-06-01T12:25:58;27.60;32.60
10644;DHT22;5370;50.132;8.626;2023-06-01T12:28:26;27.50;32.70
10644;DHT22;5370;50.132;8.626;2023-06-01T12:31:13;27.50;32.30
10644;DHT22;5370;50.132;8.626;2023-06-01T12:33:41;27.50;32.30
10644;DHT22;5370;50.132;8.626;2023-06-01T12:36:07;27.50;32.00
10644;DHT22;5370;50.132;8.626;2023-06-01T12:38:37;27.60;32.00
10644;DHT22;5370;50.132;8.626;2023-06-01T12:41:11;27.70;31.80
10644;DHT22;5370;50.132;8.626;2023-06-01T12:43:38;27.70;31.70
10644;DHT22;5370;50.132;8.626;2023-06-01T12:46:04;27.80;31.40
10644;DHT22;5370;50.132;8.626;2023-06-01T12:48:36;27.80;31.20
10644;DHT22;5370;50.132;8.626;2023-06-01T12:51:03;27.80;30.90
10644;DHT22;5370;50.132;8.626;2023-06-01T12:53:29;27.90;30.90
10644;DHT22;5370;50.132;8.626;2023-06-01T12:55:55;28.00;30.70
10644;DHT22;5370;50.132;8.626;2023-06-01T12:58:21;27.90;30.40
10644;DHT22;5370;50.132;8.626;2023-06-01T13:00:46;27.90;30.70
10644;DHT22;5370;50.132;8.626;2023-06-01T13:03:12;27.90;30.70
10644;DHT22;5370;50.132;8.626;2023-06-01T13:05:41;27.90;31.10
10644;DHT22;5370;50.132;8.626;2023-06-01T13:08:10;27.80;30.80
10644;DHT22;5370;50.132;8.626;2023-06-01T13:10:36;27.90;30.70
10644;DHT22;5370;50.132;8.626;2023-06-01T13:13:01;27.90;30.60
10644;DHT22;5370;50.132;8.626;2023-06-01T13:15:27;27.90;30.40
10644;DHT22;5370;50.132;8.626;2023-06-01T13:17:53;28.00;30.30
10644;DHT22;5370;50.132;8.626;2023-06-01T13:20:20;28.00;30.40
10644;DHT22;5370;50.132;8.626;2023-06-01T13:22:46;28.10;30.80
10644;DHT22;5370;50.132;8.626;2023-06-01T13:25:13;28.20;30.40
10644;DHT22;5370;50.132;8.626;2023-06-01T13:27:39;28.30;30.40
10644;DHT22;5370;50.132;8.626;2023-06-01T13:30:05;28.40;30.00
10644;DHT22;5370;50.132;8.626;2023-06-01T13:32:31;28.40;30.00
10644;DHT22;5370;50.132;8.626;2023-06-01T13:34:57;28.40;30.10
10644;DHT22;5370;50.132;8.626;2023-06-01T13:37:23;28.50;29.80
10644;DHT22;5370;50.132;8.626;2023-06-01T13:39:48;28.50;29.70
10644;DHT22;5370;50.132;8.626;2023-06-01T13:42:16;28.50;29.50
10644;DHT22;5370;50.132;8.626;2023-06-01T13:44:41;28.40;29.30
10644;DHT22;5370;50.132;8.626;2023-06-01T13:47:11;28.50;29.70
10644;DHT22;5370;50.132;8.626;2023-06-01T13:49:37;28.50;29.80
10644;DHT22;5370;50.132;8.626;2023-06-01T13:52:02;28.50;29.70
10644;DHT22;5370;50.132;8.626;2023-06-01T13:54:28;28.50;30.20
10644;DHT22;5370;50.132;8.626;2023-06-01T13:56:54;28.50;30.50
10644;DHT22;5370;50.132;8.626;2023-06-01T13:59:19;28.60;30.90
10644;DHT22;5370;50.132;8.626;2023-06-01T14:01:45;28.60;30.70
10644;DHT22;5370;50.132;8.626;2023-06-01T14:04:11;28.70;30.60
10644;DHT22;5370;50.132;8.626;2023-06-01T14:06:36;28.70;30.50
10644;DHT22;5370;50.132;8.626;2023-06-01T14:09:02;28.70;30.70
10644;DHT22;5370;50.132;8.626;2023-06-01T14:11:28;28.60;31.00
10644;DHT22;5370;50.132;8.626;2023-06-01T14:13:53;28.70;30.70
10644;DHT22;5370;50.132;8.626;2023-06-01T14:16:19;28.70;31.00
10644;DHT22;5370;50.132;8.626;2023-06-01T14:18:44;28.60;30.80
10644;DHT22;5370;50.132;8.626;2023-06-01T14:21:10;28.70;30.80
10644;DHT22;5370;50.132;8.626;2023-06-01T14:23:35;28.80;30.70
10644;DHT22;5370;50.132;8.626;2023-06-01T14:26:01;28.90;30.60
10644;DHT22;5370;50.132;8.626;2023-06-01T14:28:27;29.00;30.60
10644;DHT22;5370;50.132;8.626;2023-06-01T14:30:52;29.10;30.50
10644;DHT22;5370;50.132;8.626;2023-06-01T14:33:18;29.10;30.40
10644;DHT22;5370;50.132;8.626;2023-06-01T14:35:43;29.20;30.00
10644;DHT22;5370;50.132;8.626;2023-06-01T14:38:09;29.30;30.00
10644;DHT22;5370;50.132;8.626;2023-06-01T14:40:34;29.30;30.10
10644;DHT22;5370;50.132;8.626;2023-06-01T14:43:00;29.20;30.30
10644;DHT22;5370;50.132;8.626;2023-06-01T14:45:25;29.20;30.10
10644;DHT22;5370;50.132;8.626;2023-06-01T14:47:52;29.30;30.30
10644;DHT22;5370;50.132;8.626;2023-06-01T14:50:17;29.40;30.30
10644;DHT22;5370;50.132;8.626;2023-06-01T14:52:44;29.40;29.90
10644;DHT22;5370;50.132;8.626;2023-06-01T14:55:09;29.40;29.70
10644;DHT22;5370;50.132;8.626;2023-06-01T14:57:35;29.40;30.10
10644;DHT22;5370;50.132;8.626;2023-06-01T15:00:00;29.30;30.00
10644;DHT22;5370;50.132;8.626;2023-06-01T15:02:26;29.20;30.30
10644;DHT22;5370;50.132;8.626;2023-06-01T15:04:51;29.20;30.60
10644;DHT22;5370;50.132;8.626;2023-06-01T15:07:17;29.20;30.70
10644;DHT22;5370;50.132;8.626;2023-06-01T15:09:42;29.30;31.00
10644;DHT22;5370;50.132;8.626;2023-06-01T15:12:08;29.30;31.10
10644;DHT22;5370;50.132;8.626;2023-06-01T15:14:34;29.30;31.20
10644;DHT22;5370;50.132;8.626;2023-06-01T15:16:59;29.20;31.50
10644;DHT22;5370;50.132;8.626;2023-06-01T15:19:25;29.10;31.80
10644;DHT22;5370;50.132;8.626;2023-06-01T15:21:51;29.00;31.70
10644;DHT22;5370;50.132;8.626;2023-06-01T15:24:16;29.00;31.90
10644;DHT22;5370;50.132;8.626;2023-06-01T15:26:42;29.00;32.10
10644;DHT22;5370;50.132;8.626;2023-06-01T15:29:07;29.10;32.00
10644;DHT22;5370;50.132;8.626;2023-06-01T15:31:33;29.10;32.30
10644;DHT22;5370;50.132;8.626;2023-06-01T15:33:58;29.20;32.30
10644;DHT22;5370;50.132;8.626;2023-06-01T15:36:24;29.30;32.00
10644;DHT22;5370;50.132;8.626;2023-06-01T15:38:49;29.40;31.60
10644;DHT22;5370;50.132;8.626;2023-06-01T15:41:15;29.50;31.50
10644;DHT22;5370;50.132;8.626;2023-06-01T15:43:40;29.50;31.60
10644;DHT22;5370;50.132;8.626;2023-06-01T15:46:06;29.50;30.80
10644;DHT22;5370;50.132;8.626;2023-06-01T15:48:31;29.40;30.90
10644;DHT22;5370;50.132;8.626;2023-06-01T15:50:57;29.40;31.20
10644;DHT22;5370;50.132;8.626;2023-06-01T15:53:23;29.40;31.50
10644;DHT22;5370;50.132;8.626;2023-06-01T15:55:49;29.40;31.70
10644;DHT22;5370;50.132;8.626;2023-06-01T15:58:14;29.40;31.90
10644;DHT22;5370;50.132;8.626;2023-06-01T16:00:41;29.50;32.10
10644;DHT22;5370;50.132;8.626;2023-06-01T16:03:07;29.50;31.80
10644;DHT22;5370;50.132;8.626;2023-06-01T16:05:32;29.50;31.80
10644;DHT22;5370;50.132;8.626;2023-06-01T16:07:58;29.40;32.10
10644;DHT22;5370;50.132;8.626;2023-06-01T16:10:23;29.40;31.90
10644;DHT22;5370;50.132;8.626;2023-06-01T16:12:49;29.40;31.70
10644;DHT22;5370;50.132;8.626;2023-06-01T16:15:15;29.50;31.80
10644;DHT22;5370;50.132;8.626;2023-06-01T16:17:40;29.50;31.90
10644;DHT22;5370;50.132;8.626;2023-06-01T16:20:06;29.50;31.70
10644;DHT22;5370;50.132;8.626;2023-06-01T16:22:32;29.50;30.50